createdAt,value
2018-07-10T00:02:28.741Z,99.90
2018-07-10T00:07:28.534Z,99.90
2018-07-10T00:10:17.813Z,99.90
2018-07-10T00:12:46.475Z,99.90
2018-07-10T00:15:15.080Z,99.90
2018-07-10T00:17:43.761Z,99.90
2018-07-10T00:20:12.478Z,99.90
2018-07-10T00:22:41.178Z,99.90
2018-07-10T00:25:09.874Z,99.90
2018-07-10T00:27:38.598Z,99.90
2018-07-10T00:30:07.271Z,99.90
2018-07-10T00:32:35.977Z,99.90
2018-07-10T00:35:04.639Z,99.90
2018-07-10T00:37:33.399Z,99.90
2018-07-10T00:40:02.156Z,99.90
2018-07-10T00:42:30.898Z,99.90
2018-07-10T00:44:59.525Z,99.90
2018-07-10T00:47:28.354Z,99.90
2018-07-10T00:49:57.016Z,99.90
2018-07-10T00:52:34.453Z,99.90
2018-07-10T00:55:03.584Z,99.90
2018-07-10T00:57:33.343Z,99.90
2018-07-10T01:00:02.947Z,99.90
2018-07-10T01:02:31.649Z,99.90
2018-07-10T01:05:00.307Z,99.90
2018-07-10T01:07:28.966Z,99.90
2018-07-10T01:09:57.671Z,99.90
2018-07-10T01:12:26.377Z,99.90
2018-07-10T01:14:55.285Z,99.90
2018-07-10T01:17:23.996Z,99.90
2018-07-10T01:19:52.676Z,99.90
2018-07-10T01:22:21.418Z,99.90
2018-07-10T01:24:50.413Z,99.90
2018-07-10T01:29:48.329Z,99.90
2018-07-10T01:32:17.152Z,99.90
2018-07-10T01:34:45.778Z,99.90
2018-07-10T01:37:14.485Z,99.90
2018-07-10T01:39:43.206Z,99.90
2018-07-10T01:42:11.897Z,99.90
2018-07-10T01:44:40.634Z,99.90
2018-07-10T01:47:09.378Z,99.90
2018-07-10T01:49:38.175Z,99.90
2018-07-10T01:52:07.367Z,99.90
2018-07-10T01:54:36.009Z,99.90
2018-07-10T01:57:04.807Z,99.90
2018-07-10T01:59:33.614Z,99.90
2018-07-10T02:02:02.384Z,99.90
2018-07-10T02:04:31.042Z,99.90
2018-07-10T02:06:59.779Z,99.90
2018-07-10T02:09:28.514Z,99.90
2018-07-10T02:11:57.285Z,99.90
2018-07-10T02:16:54.349Z,99.90
2018-07-10T02:19:23.234Z,99.90
2018-07-10T02:21:51.971Z,99.90
2018-07-10T02:24:23.902Z,99.90
2018-07-10T02:26:53.141Z,99.90
2018-07-10T02:49:18.929Z,99.90
2018-07-10T02:52:06.780Z,99.90
2018-07-10T02:54:36.552Z,99.90
2018-07-10T02:57:07.641Z,99.90
2018-07-10T02:59:40.128Z,99.90
2018-07-10T03:02:12.882Z,99.90
2018-07-10T03:04:41.984Z,99.90
2018-07-10T03:07:13.737Z,99.90
2018-07-10T03:09:42.588Z,99.90
2018-07-10T03:12:11.318Z,99.90
2018-07-10T03:14:40.047Z,99.90
2018-07-10T03:17:09.466Z,99.90
2018-07-10T03:19:38.242Z,99.90
2018-07-10T03:22:07.235Z,99.90
2018-07-10T03:24:35.955Z,99.90
2018-07-10T03:27:04.692Z,99.90
2018-07-10T03:29:33.351Z,99.90
2018-07-10T03:32:02.024Z,99.90
2018-07-10T03:34:30.786Z,99.90
2018-07-10T03:36:59.490Z,99.90
2018-07-10T03:39:28.548Z,99.90
2018-07-10T03:41:57.228Z,99.90
2018-07-10T03:44:26.079Z,99.90
2018-07-10T03:46:54.775Z,99.90
2018-07-10T03:49:23.595Z,99.90
2018-07-10T03:51:53.192Z,99.90
2018-07-10T03:54:21.902Z,99.90
2018-07-10T03:56:50.654Z,99.90
2018-07-10T03:59:19.496Z,99.90
2018-07-10T04:01:48.210Z,99.90
2018-07-10T04:04:16.994Z,99.90
2018-07-10T04:06:47.449Z,99.90
2018-07-10T04:09:16.107Z,99.90
2018-07-10T04:11:48.457Z,99.90
2018-07-10T04:14:19.086Z,99.90
2018-07-10T04:16:47.906Z,99.90
2018-07-10T04:19:17.170Z,99.90
2018-07-10T04:21:55.267Z,99.90
2018-07-10T04:24:29.598Z,99.90
2018-07-10T04:27:32.523Z,99.90
2018-07-10T04:30:21.476Z,99.90
2018-07-10T04:32:50.174Z,99.90
2018-07-10T04:35:21.122Z,99.90
2018-07-10T04:37:51.090Z,99.90
2018-07-10T04:40:20.555Z,99.90
2018-07-10T04:43:00.036Z,99.90
2018-07-10T04:45:33.583Z,99.90
2018-07-10T04:48:02.323Z,99.90
2018-07-10T04:50:42.633Z,99.90
2018-07-10T04:53:43.514Z,99.90
2018-07-10T04:56:13.654Z,99.90
2018-07-10T04:58:45.293Z,99.90
2018-07-10T05:01:15.052Z,99.90
2018-07-10T05:03:44.670Z,99.90
2018-07-10T05:06:13.358Z,99.90
2018-07-10T05:08:43.215Z,99.90
2018-07-10T05:11:11.912Z,99.90
2018-07-10T05:13:40.670Z,99.90
2018-07-10T05:16:09.381Z,99.90
2018-07-10T05:18:38.211Z,99.90
2018-07-10T05:21:10.462Z,99.90
2018-07-10T05:23:39.497Z,99.90
2018-07-10T05:26:09.423Z,99.90
2018-07-10T05:28:38.134Z,99.90
2018-07-10T05:31:06.923Z,99.90
2018-07-10T05:33:35.939Z,99.90
2018-07-10T05:36:05.194Z,99.90
2018-07-10T05:38:38.693Z,99.90
2018-07-10T05:41:08.033Z,99.90
2018-07-10T05:43:44.729Z,99.90
2018-07-10T05:46:13.408Z,99.90
2018-07-10T05:48:51.449Z,99.90
2018-07-10T05:51:20.161Z,99.90
2018-07-10T05:54:01.554Z,99.90
2018-07-10T05:56:30.274Z,99.90
2018-07-10T05:59:01.074Z,99.90
2018-07-10T06:03:58.137Z,99.90
2018-07-10T06:06:27.351Z,99.90
2018-07-10T06:08:56.206Z,99.90
2018-07-10T06:11:24.954Z,99.90
2018-07-10T06:13:54.116Z,99.90
2018-07-10T06:16:22.779Z,99.90
2018-07-10T06:18:53.938Z,99.90
2018-07-10T06:23:53.058Z,99.90
2018-07-10T06:26:21.826Z,99.90
2018-07-10T06:28:57.247Z,99.90
2018-07-10T06:31:28.210Z,99.90
2018-07-10T06:34:05.586Z,99.90
2018-07-10T06:36:40.182Z,99.90
2018-07-10T06:39:12.471Z,99.90
2018-07-10T06:41:50.664Z,99.90
2018-07-10T06:44:20.614Z,99.90
2018-07-10T06:46:53.237Z,99.90
2018-07-10T06:49:23.305Z,99.90
2018-07-10T06:52:02.337Z,99.90
2018-07-10T06:54:31.246Z,99.90
2018-07-10T06:57:00.634Z,99.90
2018-07-10T06:59:29.351Z,99.90
2018-07-10T07:01:58.096Z,99.90
2018-07-10T07:04:26.705Z,99.90
2018-07-10T07:06:55.497Z,99.90
2018-07-10T07:09:24.146Z,99.90
2018-07-10T07:11:52.826Z,99.90
2018-07-10T07:14:21.547Z,99.90
2018-07-10T07:16:50.230Z,99.90
2018-07-10T07:19:19.505Z,99.90
2018-07-10T07:21:48.202Z,99.90
2018-07-10T07:24:16.907Z,99.90
2018-07-10T07:26:45.696Z,99.90
2018-07-10T07:29:14.590Z,99.90
2018-07-10T07:31:43.337Z,99.90
2018-07-10T07:34:12.052Z,99.90
2018-07-10T07:39:09.059Z,99.90
2018-07-10T07:41:37.749Z,99.90
2018-07-10T07:44:06.739Z,99.90
2018-07-10T07:46:35.303Z,99.90
2018-07-10T07:49:04.381Z,99.90
2018-07-10T07:54:01.923Z,99.90
2018-07-10T07:56:30.526Z,99.90
2018-07-10T07:58:59.251Z,99.90
2018-07-10T08:01:27.916Z,99.90
2018-07-10T08:03:56.609Z,99.90
2018-07-10T08:06:25.426Z,99.90
2018-07-10T08:08:54.150Z,99.90
2018-07-10T08:11:22.831Z,99.90
2018-07-10T08:13:51.664Z,99.90
2018-07-10T08:16:20.432Z,99.90
2018-07-10T08:18:49.192Z,99.90
2018-07-10T08:21:17.876Z,99.90
2018-07-10T08:23:46.552Z,99.90
2018-07-10T08:26:15.613Z,99.90
2018-07-10T08:28:44.414Z,99.90
2018-07-10T08:31:13.196Z,99.90
2018-07-10T08:33:41.942Z,99.90
2018-07-10T08:36:10.546Z,99.90
2018-07-10T08:38:44.311Z,99.90
2018-07-10T08:41:25.217Z,99.90
2018-07-10T08:43:54.715Z,99.90
2018-07-10T08:48:55.126Z,99.90
2018-07-10T08:51:23.855Z,99.90
2018-07-10T08:53:54.889Z,99.90
2018-07-10T08:56:23.644Z,99.90
2018-07-10T08:58:52.502Z,99.90
2018-07-10T09:01:21.250Z,99.90
2018-07-10T09:06:18.376Z,99.90
2018-07-10T09:08:47.115Z,99.90
2018-07-10T09:11:15.866Z,99.90
2018-07-10T09:13:44.670Z,99.90
2018-07-10T09:16:13.378Z,99.90
2018-07-10T09:18:42.175Z,99.90
2018-07-10T09:21:10.851Z,99.90
2018-07-10T09:23:39.620Z,99.90
2018-07-10T09:26:08.351Z,97.90
2018-07-10T09:28:37.971Z,94.70
2018-07-10T09:31:07.198Z,96.00
2018-07-10T09:33:36.501Z,98.90
2018-07-10T09:36:05.766Z,97.40
2018-07-10T09:38:35.914Z,95.30
2018-07-10T09:41:06.505Z,96.10
2018-07-10T09:43:36.448Z,96.00
2018-07-10T09:46:05.194Z,95.40
2018-07-10T09:48:34.030Z,93.80
2018-07-10T09:51:02.823Z,95.40
2018-07-10T09:53:31.547Z,99.30
2018-07-10T09:56:00.333Z,99.90
2018-07-10T09:58:29.147Z,99.90
2018-07-10T10:01:04.656Z,99.90
2018-07-10T10:03:33.723Z,99.90
2018-07-10T10:06:03.221Z,99.90
2018-07-10T10:08:31.982Z,99.90
2018-07-10T10:11:00.747Z,99.90
2018-07-10T10:13:29.399Z,99.90
2018-07-10T10:15:58.158Z,99.90
2018-07-10T10:18:27.873Z,99.90
2018-07-10T10:20:56.875Z,99.90
2018-07-10T10:23:25.682Z,99.90
2018-07-10T10:25:54.409Z,99.90
2018-07-10T10:28:23.936Z,99.90
2018-07-10T10:30:52.596Z,99.90
2018-07-10T10:33:21.370Z,99.90
2018-07-10T10:35:50.067Z,99.90
2018-07-10T10:38:18.746Z,99.90
2018-07-10T10:40:49.270Z,99.90
2018-07-10T10:43:17.979Z,99.90
2018-07-10T10:45:46.772Z,99.90
2018-07-10T10:48:16.306Z,99.90
2018-07-10T10:50:47.572Z,99.00
2018-07-10T10:53:16.558Z,97.60
2018-07-10T10:55:45.201Z,99.00
2018-07-10T10:58:13.918Z,93.20
2018-07-10T11:00:42.592Z,91.40
2018-07-10T11:03:11.323Z,86.80
2018-07-10T11:05:41.006Z,87.40
2018-07-10T11:08:09.788Z,89.20
2018-07-10T11:10:38.488Z,91.30
2018-07-10T11:13:07.413Z,92.70
2018-07-10T11:15:42.131Z,96.90
2018-07-10T11:18:12.583Z,99.90
2018-07-10T11:22:20.027Z,99.90
2018-07-10T11:24:56.059Z,99.90
2018-07-10T11:27:36.211Z,99.90
2018-07-10T11:30:04.962Z,99.90
2018-07-10T11:32:33.697Z,99.90
2018-07-10T11:35:02.357Z,99.90
2018-07-10T11:37:31.070Z,99.90
2018-07-10T11:39:59.811Z,99.90
2018-07-10T11:42:28.639Z,99.90
2018-07-10T11:44:57.370Z,99.90
2018-07-10T11:47:27.170Z,99.90
2018-07-10T11:49:55.946Z,99.90
2018-07-10T11:52:24.666Z,99.90
2018-07-10T11:54:53.397Z,99.90
2018-07-10T11:57:22.197Z,99.90
2018-07-10T11:59:50.851Z,99.90
2018-07-10T12:02:19.893Z,99.90
2018-07-10T12:07:16.943Z,99.90
2018-07-10T12:09:56.668Z,99.90
2018-07-10T12:12:25.371Z,99.90
2018-07-10T12:14:54.067Z,99.90
2018-07-10T12:17:22.791Z,99.90
2018-07-10T12:19:51.553Z,99.90
2018-07-10T12:22:20.339Z,99.90
2018-07-10T12:24:49.063Z,99.90
2018-07-10T12:27:17.836Z,99.90
2018-07-10T12:29:46.590Z,99.90
2018-07-10T12:32:15.308Z,99.90
2018-07-10T12:34:44.003Z,99.90
2018-07-10T12:37:12.667Z,99.90
2018-07-10T12:39:41.417Z,99.90
2018-07-10T12:42:10.361Z,99.90
2018-07-10T12:44:39.029Z,99.90
2018-07-10T12:47:07.660Z,99.90
2018-07-10T12:49:36.358Z,99.90
2018-07-10T12:52:05.047Z,99.90
2018-07-10T12:54:33.829Z,99.90
2018-07-10T12:57:02.611Z,99.90
2018-07-10T12:59:31.407Z,99.90
2018-07-10T13:02:00.094Z,99.90
2018-07-10T13:04:28.898Z,99.90
2018-07-10T13:06:57.588Z,99.90
2018-07-10T13:09:26.308Z,99.90
2018-07-10T13:11:55.107Z,99.90
2018-07-10T13:14:23.877Z,99.90
2018-07-10T13:16:52.632Z,99.90
2018-07-10T13:19:21.581Z,99.90
2018-07-10T13:21:50.305Z,99.90
2018-07-10T13:24:18.962Z,99.90
2018-07-10T13:26:47.621Z,99.90
2018-07-10T13:29:16.358Z,99.90
2018-07-10T13:31:45.081Z,99.90
2018-07-10T13:34:13.837Z,99.90
2018-07-10T13:36:42.645Z,99.90
2018-07-10T13:39:11.417Z,99.90
2018-07-10T13:41:40.218Z,99.90
2018-07-10T13:46:38.273Z,99.90
2018-07-10T13:49:07.043Z,99.90
2018-07-10T13:51:35.676Z,99.90
2018-07-10T13:54:04.406Z,99.90
2018-07-10T13:56:33.073Z,99.90
2018-07-10T13:59:01.821Z,99.90
2018-07-10T14:01:30.482Z,99.90
2018-07-10T14:03:59.218Z,99.90
2018-07-10T14:06:27.906Z,99.90
2018-07-10T14:08:56.701Z,99.90
2018-07-10T14:11:25.442Z,99.90
2018-07-10T14:13:54.166Z,99.90
2018-07-10T14:16:22.898Z,99.90
2018-07-10T14:18:54.450Z,99.90
2018-07-10T14:21:23.126Z,99.90
2018-07-10T14:23:51.901Z,99.90
2018-07-10T14:26:20.656Z,99.90
2018-07-10T14:28:49.398Z,99.90
2018-07-10T14:31:18.139Z,99.90
2018-07-10T14:33:46.926Z,99.90
2018-07-10T14:36:15.638Z,99.90
2018-07-10T14:38:44.970Z,99.90
2018-07-10T14:41:15.261Z,99.90
2018-07-10T14:43:45.013Z,99.90
2018-07-10T14:46:20.192Z,99.90
2018-07-10T14:48:55.584Z,99.90
2018-07-10T14:51:58.119Z,99.90
2018-07-10T14:54:26.967Z,99.90
2018-07-10T14:56:55.703Z,99.90
2018-07-10T14:59:24.445Z,99.90
2018-07-10T15:01:53.249Z,99.90
2018-07-10T15:04:21.990Z,99.90
2018-07-10T15:06:50.711Z,99.90
2018-07-10T15:09:19.463Z,99.90
2018-07-10T15:11:48.132Z,99.90
2018-07-10T15:14:16.927Z,99.90
2018-07-10T15:16:51.023Z,99.90
2018-07-10T15:19:19.679Z,99.90
2018-07-10T15:21:48.471Z,99.90
2018-07-10T15:24:17.194Z,99.90
2018-07-10T15:26:45.903Z,99.90
2018-07-10T15:29:19.937Z,99.90
2018-07-10T15:31:48.698Z,99.90
2018-07-10T15:34:17.351Z,99.90
2018-07-10T15:36:46.186Z,99.90
2018-07-10T15:39:15.148Z,99.90
2018-07-10T15:41:44.891Z,99.90
2018-07-10T15:44:13.549Z,99.90
2018-07-10T15:46:42.237Z,99.90
2018-07-10T15:49:10.891Z,99.90
2018-07-10T15:51:39.545Z,99.90
2018-07-10T15:54:08.268Z,99.90
2018-07-10T15:56:37.006Z,99.90
2018-07-10T15:59:05.885Z,99.90
2018-07-10T16:01:34.682Z,99.90
2018-07-10T16:04:03.425Z,99.90
2018-07-10T16:07:32.340Z,99.90
2018-07-10T16:10:01.063Z,99.90
2018-07-10T16:18:26.563Z,99.90
2018-07-10T16:20:58.716Z,99.90
2018-07-10T16:26:00.774Z,99.90
2018-07-10T16:28:29.314Z,99.90
2018-07-10T16:30:58.112Z,99.90
2018-07-10T16:33:30.440Z,99.90
2018-07-10T16:38:27.778Z,99.90
2018-07-10T16:41:01.877Z,99.90
2018-07-10T16:43:30.634Z,99.90
2018-07-10T16:46:01.140Z,99.90
2018-07-10T16:48:42.918Z,99.90
2018-07-10T16:51:22.231Z,99.90
2018-07-10T16:53:55.722Z,99.90
2018-07-10T16:56:24.560Z,99.90
2018-07-10T16:58:54.239Z,99.90
2018-07-10T17:01:24.207Z,99.90
2018-07-10T17:03:53.235Z,99.90
2018-07-10T17:06:23.006Z,99.90
2018-07-10T17:08:51.783Z,99.90
2018-07-10T17:11:20.550Z,99.90
2018-07-10T17:14:06.880Z,99.90
2018-07-10T17:16:36.676Z,99.90
2018-07-10T17:19:05.398Z,99.90
2018-07-10T17:27:29.344Z,99.90
2018-07-10T17:29:58.064Z,99.90
2018-07-10T17:32:26.759Z,99.90
2018-07-10T17:34:55.563Z,99.90
2018-07-10T17:37:24.292Z,99.90
2018-07-10T17:39:53.165Z,99.90
2018-07-10T17:42:22.007Z,99.90
2018-07-10T17:44:50.835Z,99.90
2018-07-10T17:47:21.634Z,99.90
2018-07-10T17:49:50.392Z,99.90
2018-07-10T17:52:19.205Z,99.90
2018-07-10T17:54:47.868Z,99.90
2018-07-10T17:57:16.594Z,99.90
2018-07-10T17:59:45.333Z,99.90
2018-07-10T18:02:25.059Z,99.90
2018-07-10T18:04:53.810Z,99.90
2018-07-10T18:07:22.590Z,99.90
2018-07-10T18:09:51.268Z,99.90
2018-07-10T18:12:20.055Z,99.90
2018-07-10T18:14:48.768Z,99.90
2018-07-10T18:17:17.500Z,99.90
2018-07-10T18:19:46.345Z,99.90
2018-07-10T18:22:15.078Z,99.90
2018-07-10T18:24:43.826Z,99.90
2018-07-10T18:27:12.542Z,99.90
2018-07-10T18:29:41.274Z,99.90
2018-07-10T18:32:10.059Z,99.90
2018-07-10T18:34:39.068Z,99.90
2018-07-10T18:37:08.322Z,99.90
2018-07-10T18:39:37.070Z,99.90
2018-07-10T18:42:05.965Z,99.90
2018-07-10T18:44:34.768Z,99.90
2018-07-10T18:47:03.577Z,99.90
2018-07-10T18:49:41.804Z,99.90
2018-07-10T18:52:10.555Z,99.90
2018-07-10T18:54:55.678Z,99.90
2018-07-10T19:00:31.002Z,99.90
2018-07-10T19:03:05.360Z,99.90
2018-07-10T19:05:39.239Z,99.90
2018-07-10T19:10:42.172Z,99.90
2018-07-10T19:13:10.987Z,99.90
2018-07-10T19:15:39.686Z,99.90
2018-07-10T19:18:08.414Z,99.90
2018-07-10T19:20:42.299Z,99.90
2018-07-10T19:23:23.440Z,99.90
2018-07-10T19:25:52.243Z,99.90
2018-07-10T19:28:21.081Z,99.90
2018-07-10T19:30:57.148Z,99.90
2018-07-10T19:33:27.015Z,99.90
2018-07-10T19:35:55.897Z,99.90
2018-07-10T19:38:24.788Z,99.90
2018-07-10T19:40:53.526Z,99.90
2018-07-10T19:46:10.247Z,99.90
2018-07-10T19:48:39.792Z,99.90
2018-07-10T19:51:10.729Z,99.90
2018-07-10T19:53:39.638Z,99.90
2018-07-10T19:56:09.418Z,99.90
2018-07-10T19:58:41.390Z,99.90
2018-07-10T20:01:32.011Z,99.90
2018-07-10T20:04:07.500Z,99.90
2018-07-10T20:06:47.657Z,99.90
2018-07-10T20:09:18.048Z,99.90
2018-07-10T20:11:53.947Z,99.90
2018-07-10T20:14:24.906Z,99.90
2018-07-10T20:16:58.970Z,99.90
2018-07-10T20:20:22.246Z,99.90
2018-07-10T20:23:16.210Z,99.90
2018-07-10T20:26:04.546Z,99.90
2018-07-10T20:28:43.395Z,99.90
2018-07-10T20:32:20.578Z,99.90
2018-07-10T20:35:02.958Z,99.90
2018-07-10T20:37:31.870Z,99.90
2018-07-10T20:40:00.824Z,99.90
2018-07-10T20:42:38.208Z,99.90
2018-07-10T20:45:08.422Z,99.90
2018-07-10T20:47:55.063Z,99.90
2018-07-10T20:50:38.149Z,99.90
2018-07-10T20:53:21.315Z,99.90
2018-07-10T20:55:53.771Z,99.90
2018-07-10T20:58:24.316Z,99.90
2018-07-10T21:01:04.830Z,99.90
2018-07-10T21:03:45.219Z,99.90
2018-07-10T21:06:31.191Z,99.90
2018-07-10T21:09:08.072Z,99.90
2018-07-10T21:12:15.972Z,99.90
2018-07-10T21:15:09.443Z,99.90
2018-07-10T21:17:53.898Z,99.90
2018-07-10T21:21:33.369Z,99.90
2018-07-10T21:24:11.427Z,99.90
2018-07-10T21:26:45.460Z,99.90
2018-07-10T21:29:21.471Z,99.90
2018-07-10T21:32:00.527Z,99.90
2018-07-10T21:34:52.157Z,99.90
2018-07-10T21:40:39.545Z,99.90
2018-07-10T21:43:16.448Z,99.90
2018-07-10T21:46:56.649Z,99.90
2018-07-10T21:49:35.667Z,99.90
2018-07-10T21:52:04.423Z,99.90
2018-07-10T21:54:33.177Z,99.90
2018-07-10T21:57:02.502Z,99.90
2018-07-10T21:59:32.006Z,99.90
2018-07-10T22:02:01.979Z,99.90
2018-07-10T22:04:31.957Z,99.90
2018-07-10T22:09:33.018Z,99.90
2018-07-10T22:12:06.421Z,99.90
2018-07-10T22:14:35.145Z,99.90
2018-07-10T22:17:05.235Z,99.90
2018-07-10T22:19:36.411Z,99.90
2018-07-10T22:22:05.144Z,99.90
2018-07-10T22:24:33.871Z,99.90
2018-07-10T22:27:02.602Z,99.90
2018-07-10T22:29:36.635Z,99.90
2018-07-10T22:34:42.726Z,99.90
2018-07-10T22:37:18.274Z,99.90
2018-07-10T22:39:47.997Z,99.90
2018-07-10T22:42:16.792Z,99.90
2018-07-10T22:44:49.076Z,99.90
2018-07-10T22:47:19.674Z,99.90
2018-07-10T22:49:49.677Z,99.90
2018-07-10T22:52:18.797Z,99.90
2018-07-10T22:54:47.600Z,99.90
2018-07-10T22:57:16.393Z,99.90
2018-07-10T22:59:45.196Z,99.90
2018-07-10T23:02:13.974Z,99.90
2018-07-10T23:04:42.750Z,99.90
2018-07-10T23:07:11.482Z,99.90
2018-07-10T23:09:40.313Z,99.90
2018-07-10T23:12:09.022Z,99.90
2018-07-10T23:14:37.810Z,99.90
2018-07-10T23:17:06.546Z,99.90
2018-07-10T23:19:35.342Z,99.90
2018-07-10T23:22:04.114Z,99.90
2018-07-10T23:24:32.966Z,99.90
2018-07-10T23:27:01.755Z,99.90
2018-07-10T23:29:34.463Z,99.90
2018-07-10T23:32:03.202Z,99.90
2018-07-10T23:34:32.243Z,99.90
2018-07-10T23:37:01.343Z,99.90
2018-07-10T23:39:33.594Z,99.90
2018-07-10T23:42:06.155Z,99.90
2018-07-10T23:44:38.395Z,99.90
2018-07-10T23:47:40.328Z,99.90
2018-07-10T23:50:27.828Z,99.90
2018-07-10T23:53:59.466Z,99.90
2018-07-10T23:56:28.197Z,99.90
2018-07-10T23:58:56.933Z,99.90
